createdAt,value
2023-03-29T00:00:38.298Z,66.3478
2023-03-29T00:02:41.472Z,66.3901
2023-03-29T00:03:43.047Z,66.4221
2023-03-29T00:04:43.004Z,66.4529
2023-03-29T00:05:43.039Z,66.4839
2023-03-29T00:06:43.049Z,66.5234
2023-03-29T00:07:44.268Z,66.5624
2023-03-29T00:08:44.394Z,66.6030
2023-03-29T00:09:45.642Z,66.6415
2023-03-29T00:10:45.732Z,66.6808
2023-03-29T00:11:46.953Z,66.7255
2023-03-29T00:12:48.283Z,66.7753
2023-03-29T00:13:49.526Z,66.8293
2023-03-29T00:14:50.929Z,66.8762
2023-03-29T00:15:52.111Z,66.9420
2023-03-29T00:16:53.690Z,66.9980
2023-03-29T00:17:55.082Z,67.0538
2023-03-29T00:18:55.172Z,67.1407
2023-03-29T00:19:56.427Z,67.2302
2023-03-29T00:20:57.813Z,67.3099
2023-03-29T00:21:59.037Z,67.4026
2023-03-29T00:22:59.476Z,67.5774
2023-03-29T00:24:00.674Z,67.7806
2023-03-29T00:25:00.714Z,67.9915
2023-03-29T00:26:02.031Z,68.2536
2023-03-29T00:27:03.565Z,68.5613
2023-03-29T00:28:04.854Z,68.8731
2023-03-29T00:29:06.219Z,69.1329
2023-03-29T00:30:07.429Z,69.2762
2023-03-29T00:31:08.898Z,69.4271
2023-03-29T00:32:10.207Z,69.5501
2023-03-29T00:33:10.357Z,69.7127
2023-03-29T00:34:11.622Z,69.9144
2023-03-29T00:35:11.631Z,70.1609
2023-03-29T00:36:12.907Z,70.4130
2023-03-29T00:37:12.974Z,70.5643
2023-03-29T00:38:14.181Z,70.6505
2023-03-29T00:39:15.492Z,70.7051
2023-03-29T00:40:16.803Z,70.7553
2023-03-29T00:41:17.186Z,70.8062
2023-03-29T00:42:18.386Z,70.8384
2023-03-29T00:43:18.479Z,70.8601
2023-03-29T00:44:19.791Z,70.8921
2023-03-29T00:45:21.228Z,70.9688
2023-03-29T00:46:22.659Z,71.0591
2023-03-29T00:47:22.957Z,71.1608
2023-03-29T00:48:24.369Z,71.2393
2023-03-29T00:49:24.369Z,71.2779
2023-03-29T00:50:25.571Z,71.2920
2023-03-29T00:51:26.956Z,71.2929
2023-03-29T00:52:28.231Z,71.2800
2023-03-29T00:53:29.679Z,71.2760
2023-03-29T00:54:30.959Z,71.2735
2023-03-29T00:55:32.392Z,71.2623
2023-03-29T00:56:32.488Z,71.2734
2023-03-29T00:57:34.012Z,71.3086
2023-03-29T00:58:35.246Z,71.3638
2023-03-29T00:59:36.724Z,71.4156
2023-03-29T01:00:38.048Z,71.4584
2023-03-29T01:01:38.179Z,71.4713
2023-03-29T01:02:38.456Z,71.4670
2023-03-29T01:03:40.163Z,71.4485
2023-03-29T01:04:41.444Z,71.4346
2023-03-29T01:05:42.750Z,71.4154
2023-03-29T01:06:43.864Z,71.4013
2023-03-29T01:07:44.524Z,71.3930
2023-03-29T01:08:45.745Z,71.3701
2023-03-29T01:09:45.852Z,71.3293
2023-03-29T01:10:47.126Z,71.2808
2023-03-29T01:11:48.483Z,71.2173
2023-03-29T01:12:49.715Z,71.1358
2023-03-29T01:13:51.205Z,71.0556
2023-03-29T01:14:52.484Z,70.9764
2023-03-29T01:15:53.932Z,70.9017
2023-03-29T01:16:55.338Z,70.8251
2023-03-29T01:17:55.683Z,70.7497
2023-03-29T01:18:55.798Z,70.6945
2023-03-29T01:29:06.493Z,70.4419
2023-03-29T01:30:07.869Z,70.4320
2023-03-29T01:31:09.164Z,70.4150
2023-03-29T01:32:09.230Z,70.3957
2023-03-29T01:33:10.549Z,70.3750
2023-03-29T01:34:11.913Z,70.3534
2023-03-29T01:35:11.990Z,70.3369
2023-03-29T01:36:13.538Z,70.3167
2023-03-29T01:37:14.756Z,70.2993
2023-03-29T01:38:16.127Z,70.2802
2023-03-29T01:39:17.396Z,70.2578
2023-03-29T01:40:18.736Z,70.2405
2023-03-29T01:41:20.038Z,70.2288
2023-03-29T01:42:21.529Z,70.2269
2023-03-29T01:43:23.553Z,70.2247
2023-03-29T01:44:23.385Z,70.2207
2023-03-29T01:45:24.715Z,70.2100
2023-03-29T01:46:24.817Z,70.1964
2023-03-29T01:47:24.892Z,70.1808
2023-03-29T01:48:26.106Z,70.1768
2023-03-29T01:49:27.413Z,70.1802
2023-03-29T01:50:28.627Z,70.1831
2023-03-29T01:51:29.950Z,70.1741
2023-03-29T01:52:31.202Z,70.1643
2023-03-29T01:53:31.245Z,70.1559
2023-03-29T01:54:32.612Z,70.1442
2023-03-29T02:04:41.706Z,69.9838
2023-03-29T02:05:41.763Z,69.9605
2023-03-29T02:06:42.986Z,69.9329
2023-03-29T02:07:44.301Z,69.9078
2023-03-29T02:08:45.526Z,69.8898
2023-03-29T02:09:45.589Z,69.8722
2023-03-29T02:10:45.714Z,69.8587
2023-03-29T02:11:47.163Z,69.8465
2023-03-29T02:12:48.534Z,69.8243
2023-03-29T02:13:48.471Z,69.7981
2023-03-29T02:14:48.550Z,69.7690
2023-03-29T02:15:50.041Z,69.7469
2023-03-29T02:16:50.082Z,69.7237
2023-03-29T02:17:51.428Z,69.7046
2023-03-29T02:18:51.702Z,69.6857
2023-03-29T02:19:53.069Z,69.6628
2023-03-29T02:20:53.159Z,69.6464
2023-03-29T02:21:53.144Z,69.6247
2023-03-29T02:22:54.438Z,69.5911
2023-03-29T02:28:59.466Z,69.4736
2023-03-29T02:29:59.500Z,69.4612
2023-03-29T02:31:01.045Z,69.4451
2023-03-29T02:32:01.704Z,69.4357
2023-03-29T02:33:01.777Z,69.4274
2023-03-29T02:34:01.870Z,69.4204
2023-03-29T02:35:01.908Z,69.4211
2023-03-29T02:36:02.023Z,69.4239
2023-03-29T02:37:02.130Z,69.4284
2023-03-29T02:38:03.530Z,69.4379
2023-03-29T02:39:03.684Z,69.4474
2023-03-29T02:40:04.986Z,69.4492
2023-03-29T02:41:06.493Z,69.4477
2023-03-29T02:42:07.785Z,69.4359
2023-03-29T02:44:09.035Z,69.4069
2023-03-29T02:45:10.376Z,69.3999
2023-03-29T02:46:10.472Z,69.3928
2023-03-29T02:47:10.558Z,69.3890
2023-03-29T02:48:10.669Z,69.3868
2023-03-29T02:49:12.038Z,69.3857
2023-03-29T02:50:13.702Z,69.3884
2023-03-29T02:51:15.916Z,69.3944
2023-03-29T02:52:15.922Z,69.4016
2023-03-29T02:53:15.955Z,69.4070
2023-03-29T02:54:17.338Z,69.4098
2023-03-29T02:55:17.423Z,69.4144
2023-03-29T02:56:18.638Z,69.4184
2023-03-29T02:57:20.221Z,69.4248
2023-03-29T02:58:20.236Z,69.4325
2023-03-29T02:59:21.580Z,69.4403
2023-03-29T03:00:21.672Z,69.4430
2023-03-29T03:01:23.092Z,69.4391
2023-03-29T03:02:23.335Z,69.4399
2023-03-29T03:03:23.954Z,69.4519
2023-03-29T03:04:24.308Z,69.4634
2023-03-29T03:05:25.614Z,69.4841
2023-03-29T03:06:25.752Z,69.5101
2023-03-29T03:07:27.024Z,69.5367
2023-03-29T03:09:29.787Z,69.5972
2023-03-29T03:11:31.124Z,69.6528
2023-03-29T03:12:31.477Z,69.6792
2023-03-29T03:13:32.753Z,69.7109
2023-03-29T03:14:33.101Z,69.7575
2023-03-29T03:15:34.401Z,69.8025
2023-03-29T03:16:34.865Z,69.8375
2023-03-29T03:17:34.856Z,69.8686
2023-03-29T03:18:36.149Z,69.8918
2023-03-29T03:19:36.286Z,69.9152
2023-03-29T03:20:37.553Z,69.9376
2023-03-29T03:21:38.538Z,69.9576
2023-03-29T03:22:39.867Z,69.9698
2023-03-29T03:23:39.981Z,69.9775
2023-03-29T03:27:42.479Z,70.0365
2023-03-29T03:28:42.539Z,70.0542
2023-03-29T03:29:43.922Z,70.0708
2023-03-29T03:30:44.086Z,70.0850
2023-03-29T03:31:44.191Z,70.1068
2023-03-29T03:32:44.304Z,70.1552
2023-03-29T03:33:45.638Z,70.1898
2023-03-29T03:34:47.182Z,70.2219
2023-03-29T03:35:48.512Z,70.2484
2023-03-29T03:36:48.633Z,70.2673
2023-03-29T03:37:49.942Z,70.2880
2023-03-29T03:38:51.442Z,70.3048
2023-03-29T03:39:52.731Z,70.3162
2023-03-29T03:41:55.400Z,70.3779
2023-03-29T03:42:55.759Z,70.4314
2023-03-29T03:43:56.277Z,70.4893
2023-03-29T03:44:56.324Z,70.5193
2023-03-29T03:45:56.586Z,70.5277
2023-03-29T03:46:57.090Z,70.5315
2023-03-29T03:47:57.200Z,70.5396
2023-03-29T03:48:57.383Z,70.5619
2023-03-29T03:49:57.417Z,70.5808
2023-03-29T03:50:57.441Z,70.5969
2023-03-29T03:51:58.788Z,70.6058
2023-03-29T03:52:58.928Z,70.6062
2023-03-29T03:54:00.250Z,70.6086
2023-03-29T03:55:01.789Z,70.6391
2023-03-29T03:56:03.148Z,70.6742
2023-03-29T03:57:04.825Z,70.6955
2023-03-29T03:58:06.109Z,70.7150
2023-03-29T03:59:06.341Z,70.7390
2023-03-29T04:00:07.692Z,70.7528
2023-03-29T04:01:07.680Z,70.7659
2023-03-29T04:02:07.824Z,70.8030
2023-03-29T04:03:08.093Z,70.8452
2023-03-29T04:04:09.167Z,70.8777
2023-03-29T04:05:09.459Z,70.8945
2023-03-29T04:06:09.495Z,70.8853
2023-03-29T04:07:10.744Z,70.8597
2023-03-29T04:08:12.158Z,70.8263
2023-03-29T04:09:13.480Z,70.8085
2023-03-29T04:10:13.640Z,70.7892
2023-03-29T04:11:14.909Z,70.7574
2023-03-29T04:12:15.031Z,70.7225
2023-03-29T04:13:16.337Z,70.6954
2023-03-29T04:14:17.840Z,70.7105
2023-03-29T04:15:17.855Z,70.7364
2023-03-29T04:16:18.067Z,70.7281
2023-03-29T04:17:18.189Z,70.7059
2023-03-29T04:18:18.770Z,70.6806
2023-03-29T04:19:20.085Z,70.6678
2023-03-29T04:20:20.389Z,70.6466
2023-03-29T04:21:21.659Z,70.6233
2023-03-29T04:22:21.915Z,70.6053
2023-03-29T04:34:35.111Z,70.0331
2023-03-29T04:35:35.523Z,69.9263
2023-03-29T04:36:36.744Z,69.8470
2023-03-29T04:37:38.372Z,69.7749
2023-03-29T04:38:38.367Z,69.7048
2023-03-29T04:39:38.593Z,69.6663
2023-03-29T04:40:38.681Z,69.6334
2023-03-29T04:41:40.040Z,69.6160
2023-03-29T04:42:40.082Z,69.6029
2023-03-29T04:43:41.452Z,69.5920
2023-03-29T04:44:42.981Z,69.5828
2023-03-29T04:45:43.017Z,69.5820
2023-03-29T04:46:43.247Z,69.5760
2023-03-29T04:47:43.281Z,69.5590
2023-03-29T04:48:43.308Z,69.5280
2023-03-29T04:49:43.433Z,69.4871
2023-03-29T04:50:44.674Z,69.4594
2023-03-29T04:51:44.998Z,69.4536
2023-03-29T04:52:46.546Z,69.4652
2023-03-29T04:53:46.669Z,69.4839
2023-03-29T04:54:47.978Z,69.3890
2023-03-29T04:55:48.089Z,69.2288
2023-03-29T04:56:49.431Z,68.9876
2023-03-29T04:57:49.512Z,68.7100
2023-03-29T04:58:50.772Z,68.3470
2023-03-29T04:59:52.113Z,67.9188
2023-03-29T05:00:52.280Z,67.5684
2023-03-29T05:01:52.348Z,67.2206
2023-03-29T05:02:52.650Z,66.8464
2023-03-29T05:03:52.761Z,66.5024
2023-03-29T05:04:53.157Z,66.2082
2023-03-29T05:05:53.240Z,65.9516
2023-03-29T05:06:53.422Z,65.7274
2023-03-29T05:07:54.833Z,65.5440
2023-03-29T05:08:55.226Z,65.4452
2023-03-29T05:09:55.460Z,65.4200
2023-03-29T05:10:55.773Z,65.4487
2023-03-29T05:11:55.983Z,65.4986
2023-03-29T05:12:56.097Z,65.4456
2023-03-29T05:13:56.218Z,65.3895
2023-03-29T05:14:56.463Z,65.3519
2023-03-29T05:15:57.360Z,65.3178
2023-03-29T05:16:57.594Z,65.2979
2023-03-29T05:17:58.186Z,65.3206
2023-03-29T05:18:58.585Z,65.3921
2023-03-29T05:19:59.171Z,65.4185
2023-03-29T05:20:59.878Z,65.3677
2023-03-29T05:22:00.594Z,65.2939
2023-03-29T05:23:00.642Z,65.2143
2023-03-29T05:24:01.941Z,65.1525
2023-03-29T05:25:02.110Z,65.1059
2023-03-29T05:26:03.451Z,65.0711
2023-03-29T05:27:03.610Z,65.0832
2023-03-29T05:28:03.679Z,65.1173
2023-03-29T05:29:03.640Z,65.1322
2023-03-29T05:30:03.777Z,65.1401
2023-03-29T05:31:04.273Z,65.1400
2023-03-29T05:32:04.853Z,65.1313
2023-03-29T05:33:04.885Z,65.1211
2023-03-29T05:34:06.363Z,65.1162
2023-03-29T05:35:06.472Z,65.0953
2023-03-29T05:36:06.823Z,65.0733
2023-03-29T05:37:07.086Z,65.0401
2023-03-29T05:38:07.248Z,64.9939
2023-03-29T05:39:07.323Z,64.9412
2023-03-29T05:40:08.127Z,64.8965
2023-03-29T05:41:09.284Z,64.8578
2023-03-29T05:42:09.579Z,64.8281
2023-03-29T05:43:09.458Z,64.7831
2023-03-29T05:44:09.624Z,64.7157
2023-03-29T05:46:10.862Z,64.5454
2023-03-29T05:47:11.214Z,64.4411
2023-03-29T05:48:11.290Z,64.3328
2023-03-29T05:49:11.546Z,64.2239
2023-03-29T05:50:11.678Z,64.1284
2023-03-29T05:51:12.552Z,64.0384
2023-03-29T05:52:12.717Z,63.9576
2023-03-29T05:53:12.874Z,63.8692
2023-03-29T05:54:14.248Z,63.7755
2023-03-29T05:55:14.381Z,63.6716
2023-03-29T05:56:14.494Z,63.5651
2023-03-29T05:57:14.706Z,63.4716
2023-03-29T05:58:14.870Z,63.3869
2023-03-29T05:59:15.033Z,63.3239
2023-03-29T06:00:15.058Z,63.2812
2023-03-29T06:01:15.810Z,63.2512
2023-03-29T06:02:15.952Z,63.2100
2023-03-29T06:03:22.553Z,63.1769
2023-03-29T06:04:23.155Z,63.1668
2023-03-29T06:05:23.331Z,63.1546
2023-03-29T06:06:24.783Z,63.1487
2023-03-29T06:07:24.939Z,63.1483
2023-03-29T06:08:25.071Z,63.1550
2023-03-29T06:09:25.355Z,63.1607
2023-03-29T06:16:29.731Z,63.2397
2023-03-29T06:17:30.226Z,63.1887
2023-03-29T06:18:30.814Z,63.1274
2023-03-29T06:19:30.843Z,63.0585
2023-03-29T06:20:30.931Z,62.9966
2023-03-29T06:21:31.127Z,62.9320
2023-03-29T06:22:32.498Z,62.8369
2023-03-29T06:23:32.572Z,62.6623
2023-03-29T06:24:33.023Z,62.4468
2023-03-29T06:25:34.114Z,62.2275
2023-03-29T06:26:34.399Z,62.0071
2023-03-29T06:27:34.497Z,61.8035
2023-03-29T06:28:34.540Z,61.6250
2023-03-29T06:29:34.786Z,61.4607
2023-03-29T06:30:35.747Z,61.3199
2023-03-29T06:31:36.531Z,61.2090
2023-03-29T06:32:36.874Z,61.1354
2023-03-29T06:33:37.047Z,61.0862
2023-03-29T06:34:38.576Z,61.0495
2023-03-29T06:35:37.599Z,61.0311
2023-03-29T06:36:37.692Z,60.9984
2023-03-29T06:37:37.910Z,60.9442
2023-03-29T06:38:37.927Z,60.8447
2023-03-29T06:39:38.173Z,60.7291
2023-03-29T06:40:38.203Z,60.5999
2023-03-29T06:41:38.231Z,60.4941
2023-03-29T06:42:38.379Z,60.4124
2023-03-29T06:43:38.393Z,60.3459
2023-03-29T06:44:38.414Z,60.2865
2023-03-29T06:45:38.668Z,60.2218
2023-03-29T06:46:39.019Z,60.1648
2023-03-29T06:47:39.086Z,60.0666
2023-03-29T06:48:39.362Z,59.9271
2023-03-29T06:49:39.387Z,59.8131
2023-03-29T06:50:39.493Z,59.7401
2023-03-29T06:51:39.532Z,59.6929
2023-03-29T06:52:39.731Z,59.6620
2023-03-29T06:53:41.104Z,59.6045
2023-03-29T06:54:41.260Z,59.5429
2023-03-29T06:55:41.661Z,59.4667
2023-03-29T06:56:43.121Z,59.3744
2023-03-29T06:57:43.635Z,59.2939
2023-03-29T06:58:43.681Z,59.2144
2023-03-29T06:59:43.955Z,59.1542
2023-03-29T07:00:44.403Z,59.0663
2023-03-29T07:01:44.854Z,58.9216
2023-03-29T07:02:44.906Z,58.7920
2023-03-29T07:03:46.732Z,58.6820
2023-03-29T07:04:47.149Z,58.5954
2023-03-29T07:05:47.428Z,58.5124
2023-03-29T07:06:47.476Z,58.4254
2023-03-29T07:07:47.764Z,58.3105
2023-03-29T07:08:47.956Z,58.2040
2023-03-29T07:09:48.006Z,58.1334
2023-03-29T07:10:48.121Z,58.0798
2023-03-29T07:11:48.332Z,58.0425
2023-03-29T07:12:48.516Z,58.0838
2023-03-29T07:13:49.043Z,58.2030
2023-03-29T07:14:49.124Z,58.3642
2023-03-29T07:15:49.242Z,58.5176
2023-03-29T07:16:49.326Z,58.6296
2023-03-29T07:17:49.548Z,58.7068
2023-03-29T07:18:49.565Z,58.7777
2023-03-29T07:19:49.636Z,58.8354
2023-03-29T07:20:49.815Z,58.8504
2023-03-29T07:21:49.852Z,58.8568
2023-03-29T07:22:49.862Z,58.8515
2023-03-29T07:23:50.079Z,58.7992
2023-03-29T07:24:50.085Z,58.7155
2023-03-29T07:25:50.114Z,58.5973
2023-03-29T07:27:03.261Z,58.4376
2023-03-29T07:27:50.684Z,58.2852
2023-03-29T07:28:50.730Z,58.1534
2023-03-29T07:29:50.877Z,58.0763
2023-03-29T07:30:51.569Z,58.0723
2023-03-29T07:31:51.778Z,58.0846
2023-03-29T07:32:52.234Z,58.1064
2023-03-29T07:33:53.332Z,58.1641
2023-03-29T07:34:53.446Z,58.2437
2023-03-29T07:35:53.518Z,58.3245
2023-03-29T07:36:53.781Z,58.4135
2023-03-29T07:37:53.781Z,58.4920
2023-03-29T07:38:56.301Z,58.5480
2023-03-29T07:39:55.289Z,58.6045
2023-03-29T07:40:55.504Z,58.6251
2023-03-29T07:41:55.532Z,58.6324
2023-03-29T07:42:55.561Z,58.6320
2023-03-29T07:43:55.718Z,58.6160
2023-03-29T07:44:55.734Z,58.5845
2023-03-29T07:45:55.989Z,58.5583
2023-03-29T07:46:56.170Z,58.5415
2023-03-29T07:47:56.478Z,58.5419
2023-03-29T07:48:56.658Z,58.5459
2023-03-29T07:49:57.000Z,58.5112
2023-03-29T07:50:57.082Z,58.4241
2023-03-29T07:51:57.848Z,58.3429
2023-03-29T07:52:58.126Z,58.2527
2023-03-29T07:53:58.255Z,58.1337
2023-03-29T07:54:58.495Z,58.0016
2023-03-29T07:55:58.590Z,57.8615
2023-03-29T07:56:58.826Z,57.7271
2023-03-29T07:57:59.167Z,57.6214
2023-03-29T07:58:59.321Z,57.5544
2023-03-29T07:59:59.548Z,57.4958
2023-03-29T08:00:59.772Z,57.4146
2023-03-29T08:02:00.918Z,57.3093
2023-03-29T08:03:01.040Z,57.1704
2023-03-29T08:04:01.414Z,56.9996
2023-03-29T08:05:01.983Z,56.7931
2023-03-29T08:06:02.585Z,56.6359
2023-03-29T08:07:02.730Z,56.5140
2023-03-29T08:08:02.830Z,56.3743
2023-03-29T08:09:03.122Z,56.2254
2023-03-29T08:10:03.314Z,56.0798
2023-03-29T08:11:03.687Z,56.0165
2023-03-29T08:12:04.020Z,56.0247
2023-03-29T08:13:04.089Z,56.0411
2023-03-29T08:14:04.248Z,56.0434
2023-03-29T08:15:04.432Z,56.0777
2023-03-29T08:16:04.842Z,56.1372
2023-03-29T08:17:05.130Z,56.2107
2023-03-29T08:18:05.904Z,56.3051
2023-03-29T08:19:06.711Z,56.4180
2023-03-29T08:20:07.307Z,56.5316
2023-03-29T08:21:07.901Z,56.6172
2023-03-29T08:22:07.924Z,56.6759
2023-03-29T08:23:08.234Z,56.7182
2023-03-29T08:24:08.507Z,56.7394
2023-03-29T08:25:09.779Z,56.7438
2023-03-29T08:26:09.924Z,56.7544
2023-03-29T08:27:10.251Z,56.7864
2023-03-29T08:28:10.387Z,56.8557
2023-03-29T08:29:10.485Z,56.9494
2023-03-29T08:30:10.742Z,57.0235
2023-03-29T08:31:11.417Z,57.0695
2023-03-29T08:32:11.654Z,57.0686
2023-03-29T08:33:12.058Z,56.9936
2023-03-29T08:34:12.501Z,56.8589
2023-03-29T08:35:12.715Z,56.6553
2023-03-29T08:36:13.044Z,56.3955
2023-03-29T08:37:13.140Z,56.1486
2023-03-29T08:38:13.333Z,55.9690
2023-03-29T08:39:13.646Z,55.8150
2023-03-29T08:40:13.712Z,55.6812
2023-03-29T08:41:14.553Z,55.5229
2023-03-29T08:42:14.585Z,55.3187
2023-03-29T08:43:14.662Z,55.0592
2023-03-29T08:44:14.938Z,54.7318
2023-03-29T08:45:15.006Z,54.3465
2023-03-29T08:46:15.317Z,53.9434
2023-03-29T08:47:16.202Z,53.5888
2023-03-29T08:48:16.663Z,53.3094
2023-03-29T08:49:16.830Z,53.0257
2023-03-29T08:50:16.952Z,52.7755
2023-03-29T08:51:18.016Z,52.5681
2023-03-29T08:52:18.174Z,52.4121
2023-03-29T08:53:19.409Z,52.2936
2023-03-29T08:54:19.569Z,52.2095
2023-03-29T08:55:19.904Z,52.0937
2023-03-29T08:56:20.051Z,51.9358
2023-03-29T08:57:20.710Z,51.7017
2023-03-29T08:58:20.860Z,51.3594
2023-03-29T08:59:21.318Z,50.9086
2023-03-29T09:00:21.406Z,50.4210
2023-03-29T09:01:21.521Z,50.0233
2023-03-29T09:02:21.979Z,49.6801
2023-03-29T09:03:22.492Z,49.3387
2023-03-29T09:04:22.781Z,49.0519
2023-03-29T09:05:22.947Z,48.7447
2023-03-29T09:06:23.212Z,48.4099
2023-03-29T09:07:26.463Z,48.0500
2023-03-29T09:08:24.041Z,47.7530
2023-03-29T09:09:25.004Z,47.5432
2023-03-29T09:10:25.210Z,47.4360
2023-03-29T09:11:25.512Z,47.3304
2023-03-29T09:12:25.612Z,47.1991
2023-03-29T09:13:25.935Z,47.1157
2023-03-29T09:14:26.091Z,47.0143
2023-03-29T09:15:26.395Z,46.9118
2023-03-29T09:16:26.486Z,46.8619
2023-03-29T09:17:27.128Z,46.8158
2023-03-29T09:18:27.464Z,46.7807
2023-03-29T09:19:27.659Z,46.7410
2023-03-29T09:20:28.010Z,46.6666
2023-03-29T09:21:28.217Z,46.6305
2023-03-29T09:22:28.297Z,46.6325
2023-03-29T09:23:28.542Z,46.6556
2023-03-29T09:24:28.881Z,46.6974
2023-03-29T09:25:29.094Z,46.7710
2023-03-29T09:26:29.490Z,46.8407
2023-03-29T09:27:29.750Z,46.8491
2023-03-29T09:28:29.907Z,46.8168
2023-03-29T09:29:31.238Z,46.7518
2023-03-29T09:30:31.372Z,46.7727
2023-03-29T09:31:31.817Z,46.8710
2023-03-29T09:32:31.961Z,47.0209
2023-03-29T09:33:32.216Z,47.1444
2023-03-29T09:34:32.324Z,47.3108
2023-03-29T09:35:32.463Z,47.5362
2023-03-29T09:36:32.758Z,47.7808
2023-03-29T09:37:32.869Z,48.1046
2023-03-29T09:38:33.221Z,48.4053
2023-03-29T09:39:33.237Z,48.6568
2023-03-29T09:40:33.359Z,48.8916
2023-03-29T09:41:33.603Z,49.1189
2023-03-29T09:42:33.717Z,49.3457
2023-03-29T09:43:33.768Z,49.5988
2023-03-29T09:44:33.976Z,49.8216
2023-03-29T09:45:34.121Z,49.9798
2023-03-29T09:46:34.520Z,50.0902
2023-03-29T09:47:34.658Z,50.1841
2023-03-29T09:48:35.251Z,50.2765
2023-03-29T09:49:35.356Z,50.3504
2023-03-29T09:50:35.918Z,50.3793
2023-03-29T09:51:36.007Z,50.3654
2023-03-29T09:52:36.315Z,50.2808
2023-03-29T09:53:36.485Z,50.0976
2023-03-29T09:54:36.809Z,49.8737
2023-03-29T09:55:37.073Z,49.6469
2023-03-29T09:56:37.338Z,49.5167
2023-03-29T09:57:37.525Z,49.4911
2023-03-29T09:58:37.894Z,49.3256
2023-03-29T09:59:38.017Z,49.0274
2023-03-29T10:00:38.141Z,48.6936
2023-03-29T10:01:38.794Z,48.3772
2023-03-29T10:02:39.302Z,48.1691
2023-03-29T10:03:39.529Z,47.9757
2023-03-29T10:04:39.994Z,47.7950
2023-03-29T10:05:40.122Z,47.5953
2023-03-29T10:06:40.214Z,47.4667
2023-03-29T10:07:40.434Z,47.3773
2023-03-29T10:08:41.838Z,47.1810
2023-03-29T10:09:42.152Z,46.9939
2023-03-29T10:10:42.567Z,46.7480
2023-03-29T10:11:42.893Z,46.4519
2023-03-29T10:12:43.265Z,46.1294
2023-03-29T10:13:43.366Z,45.8043
2023-03-29T10:14:43.532Z,45.4630
2023-03-29T10:15:44.550Z,45.2181
2023-03-29T10:16:44.775Z,44.9901
2023-03-29T10:17:45.143Z,44.7692
2023-03-29T10:18:45.370Z,44.5017
2023-03-29T10:19:45.650Z,44.1814
2023-03-29T10:20:45.854Z,44.0165
2023-03-29T10:21:46.156Z,43.8197
2023-03-29T10:22:46.300Z,43.5167
2023-03-29T10:23:46.763Z,43.2359
2023-03-29T10:24:46.862Z,43.0305
2023-03-29T10:25:47.135Z,42.8417
2023-03-29T10:26:47.320Z,42.7908
2023-03-29T10:27:47.827Z,42.7634
2023-03-29T10:28:48.049Z,42.6066
2023-03-29T10:29:48.413Z,42.4280
2023-03-29T10:30:48.690Z,42.3354
2023-03-29T10:31:49.257Z,42.2586
2023-03-29T10:32:49.804Z,42.1190
2023-03-29T10:33:50.038Z,42.0621
2023-03-29T10:34:50.515Z,42.0268
2023-03-29T10:35:50.738Z,41.9747
2023-03-29T10:36:51.103Z,41.8395
2023-03-29T10:37:51.581Z,41.6138
2023-03-29T10:38:52.004Z,41.3617
2023-03-29T10:39:52.292Z,40.9893
2023-03-29T10:40:52.723Z,40.7401
2023-03-29T10:41:53.114Z,40.4434
2023-03-29T10:42:53.226Z,40.0228
2023-03-29T10:43:54.376Z,39.6876
2023-03-29T10:44:54.835Z,39.6609
2023-03-29T10:45:55.522Z,39.8357
2023-03-29T10:46:56.782Z,40.1514
2023-03-29T10:47:57.117Z,40.4082
2023-03-29T10:48:57.520Z,40.5526
2023-03-29T10:49:58.652Z,40.7182
2023-03-29T10:50:59.032Z,40.9443
2023-03-29T10:51:59.219Z,40.9209
2023-03-29T10:52:59.806Z,40.7550
2023-03-29T10:54:00.048Z,40.7102
2023-03-29T10:55:00.563Z,40.7362
2023-03-29T10:56:00.757Z,40.8063
2023-03-29T10:57:01.139Z,40.7855
2023-03-29T10:58:01.588Z,40.7312
2023-03-29T10:59:01.811Z,40.7721
2023-03-29T11:00:02.265Z,40.9426
2023-03-29T11:01:02.778Z,41.1847
2023-03-29T11:02:03.539Z,41.4263
2023-03-29T11:03:04.236Z,41.6109
2023-03-29T11:04:05.488Z,41.8176
2023-03-29T11:05:06.067Z,42.1491
2023-03-29T11:06:06.441Z,42.5239
2023-03-29T11:07:06.858Z,42.8947
2023-03-29T11:08:07.086Z,43.1340
2023-03-29T11:09:07.440Z,43.2549
2023-03-29T11:10:07.870Z,43.2089
2023-03-29T11:11:08.348Z,43.1167
2023-03-29T11:12:15.583Z,42.9809
2023-03-29T11:13:09.668Z,42.7179
2023-03-29T11:14:10.476Z,42.4108
2023-03-29T11:15:10.662Z,41.9448
2023-03-29T11:16:11.089Z,41.3637
2023-03-29T11:17:11.330Z,40.7852
2023-03-29T11:18:11.722Z,40.3523
2023-03-29T11:19:12.106Z,39.9079
2023-03-29T11:20:12.530Z,39.4891
2023-03-29T11:21:12.928Z,39.0839
2023-03-29T11:22:13.101Z,38.6649
2023-03-29T11:23:13.506Z,38.3658
2023-03-29T11:24:13.708Z,38.1962
2023-03-29T11:25:14.124Z,37.9882
2023-03-29T11:26:14.490Z,37.9008
2023-03-29T11:27:14.704Z,37.9450
2023-03-29T11:28:15.133Z,38.0233
2023-03-29T11:29:15.289Z,37.8408
2023-03-29T11:30:15.950Z,37.6225
2023-03-29T11:31:16.793Z,37.3101
2023-03-29T11:32:17.112Z,37.0907
2023-03-29T11:33:18.039Z,37.0939
2023-03-29T11:34:18.301Z,36.9768
2023-03-29T11:35:18.678Z,36.7174
2023-03-29T11:36:19.200Z,36.6026
2023-03-29T11:37:19.416Z,36.5207
2023-03-29T11:38:19.940Z,36.3106
2023-03-29T11:39:20.404Z,35.8898
2023-03-29T11:40:20.691Z,35.7579
2023-03-29T11:41:21.109Z,35.7204
2023-03-29T11:42:21.317Z,35.1755
2023-03-29T11:43:21.629Z,34.7952
2023-03-29T11:44:22.008Z,34.4681
2023-03-29T11:45:22.255Z,34.2290
2023-03-29T11:46:22.847Z,34.2614
2023-03-29T11:47:23.511Z,34.4729
2023-03-29T11:48:24.112Z,34.7222
2023-03-29T11:49:24.546Z,35.0320
2023-03-29T11:50:25.975Z,34.9491
2023-03-29T11:51:26.154Z,35.1817
2023-03-29T11:52:26.509Z,35.3117
2023-03-29T11:53:26.769Z,35.4834
2023-03-29T11:54:27.164Z,35.7410
2023-03-29T11:55:27.979Z,35.9238
2023-03-29T11:56:28.253Z,36.1478
2023-03-29T11:57:28.809Z,36.2913
2023-03-29T11:58:29.373Z,36.3687
2023-03-29T11:59:29.667Z,36.4625
2023-03-29T12:00:30.039Z,36.3979
2023-03-29T12:01:30.484Z,36.1444
2023-03-29T12:02:31.249Z,36.1214
2023-03-29T12:03:31.911Z,36.2220
2023-03-29T12:04:33.120Z,35.9574
2023-03-29T12:05:33.531Z,35.8482
2023-03-29T12:06:33.786Z,35.9099
2023-03-29T12:07:34.205Z,35.7524
2023-03-29T12:08:34.539Z,35.7548
2023-03-29T12:09:34.731Z,35.9143
2023-03-29T12:10:35.177Z,35.9418
2023-03-29T12:11:35.352Z,35.9207
2023-03-29T12:12:36.280Z,35.9548
2023-03-29T12:13:36.669Z,36.0230
2023-03-29T12:14:37.348Z,36.1334
2023-03-29T12:15:37.791Z,36.3197
2023-03-29T12:16:38.104Z,36.5938
2023-03-29T12:17:38.739Z,36.8628
2023-03-29T12:18:39.691Z,37.1198
2023-03-29T12:19:42.658Z,37.3877
2023-03-29T12:20:41.183Z,37.7770
2023-03-29T12:21:42.065Z,38.1407
2023-03-29T12:22:42.531Z,38.4524
2023-03-29T12:23:42.711Z,38.8249
2023-03-29T12:24:43.064Z,39.1837
2023-03-29T12:25:43.669Z,39.5321
2023-03-29T12:26:43.927Z,39.8302
2023-03-29T12:27:44.286Z,40.1222
2023-03-29T12:28:44.651Z,40.4815
2023-03-29T12:29:44.954Z,40.8310
2023-03-29T12:30:45.358Z,41.1359
2023-03-29T12:31:45.868Z,41.3535
2023-03-29T12:32:46.473Z,41.4707
2023-03-29T12:33:46.883Z,41.5163
2023-03-29T12:34:47.226Z,41.5316
2023-03-29T12:35:47.535Z,41.5130
2023-03-29T12:36:47.902Z,41.4958
2023-03-29T12:37:48.140Z,41.4686
2023-03-29T12:38:48.486Z,41.4010
2023-03-29T12:39:48.898Z,41.2909
2023-03-29T12:40:49.260Z,41.1422
2023-03-29T12:41:49.584Z,40.9625
2023-03-29T12:42:49.858Z,40.7120
2023-03-29T12:43:50.317Z,40.3826
2023-03-29T12:44:50.866Z,40.0112
2023-03-29T12:45:51.187Z,39.6132
2023-03-29T12:46:52.293Z,39.3258
2023-03-29T12:47:52.763Z,39.2270
2023-03-29T12:48:53.207Z,39.0764
2023-03-29T12:49:53.825Z,38.4357
2023-03-29T12:50:54.051Z,37.5523
2023-03-29T12:51:54.454Z,36.8954
2023-03-29T12:52:54.923Z,36.3810
2023-03-29T12:53:55.115Z,35.9497
2023-03-29T12:54:55.465Z,35.5795
2023-03-29T12:55:55.921Z,35.7118
2023-03-29T12:56:56.685Z,36.0035
2023-03-29T12:57:57.024Z,36.4024
2023-03-29T12:58:57.241Z,36.4676
2023-03-29T12:59:57.662Z,36.7397
2023-03-29T13:00:58.210Z,37.0787
2023-03-29T13:01:58.917Z,37.4152